createdAt,value
2019-04-23T00:03:54.791Z,100627.48
2019-04-23T00:06:47.706Z,100627.48
2019-04-23T00:09:07.330Z,100630.36
2019-04-23T00:11:32.716Z,100623.89
2019-04-23T00:14:12.198Z,100619.14
2019-04-23T00:16:42.905Z,100612.85
2019-04-23T00:19:11.634Z,100612.85
2019-04-23T00:21:45.884Z,100599.48
2019-04-23T00:24:36.282Z,100610.49
2019-04-23T00:26:53.771Z,100592.19
2019-04-23T00:29:34.599Z,100598.55
2019-04-23T00:32:04.826Z,100600.73
2019-04-23T00:34:37.846Z,100600.73
2019-04-23T00:37:13.124Z,100602.39
2019-04-23T00:39:41.265Z,100600.52
2019-04-23T00:42:17.240Z,100599.45
2019-04-23T00:44:52.832Z,100599.45
2019-04-23T00:47:22.352Z,100592.66
2019-04-23T00:50:01.986Z,100592.66
2019-04-23T00:52:26.466Z,100576.02
2019-04-23T00:55:07.647Z,100579.05
2019-04-23T01:00:14.030Z,100576.31
2019-04-23T01:02:37.526Z,100573.56
2019-04-23T01:07:44.506Z,100570.50
2019-04-23T01:10:25.563Z,100568.30
2019-04-23T01:12:52.901Z,100564.03
2019-04-23T01:18:02.267Z,100561.98
2019-04-23T01:20:36.836Z,100558.56
2019-04-23T01:22:44.261Z,100558.56
2019-04-23T01:25:24.676Z,100551.90
2019-04-23T01:28:19.634Z,100550.01
2019-04-23T01:30:46.874Z,100544.70
2019-04-23T01:33:29.646Z,100535.84
2019-04-23T01:38:35.086Z,100539.09
2019-04-23T01:41:00.300Z,100526.03
2019-04-23T01:43:38.239Z,100527.20
2019-04-23T01:46:07.937Z,100527.20
2019-04-23T01:48:43.306Z,100530.03
2019-04-23T01:51:09.528Z,100525.74
2019-04-23T02:01:45.591Z,100527.34
2019-04-23T02:04:03.568Z,100513.66
2019-04-23T02:06:36.768Z,100513.66
2019-04-23T02:09:05.270Z,100513.81
2019-04-23T02:11:37.778Z,100512.80
2019-04-23T02:14:14.871Z,100502.41
2019-04-23T02:16:44.112Z,100487.51
2019-04-23T02:19:25.430Z,100492.06
2019-04-23T02:22:01.403Z,100492.06
2019-04-23T02:24:27.465Z,100485.27
2019-04-23T02:26:55.897Z,100483.73
2019-04-23T02:29:47.648Z,100481.83
2019-04-23T02:37:24.378Z,100472.29
2019-04-23T02:40:01.010Z,100472.29
2019-04-23T02:44:56.386Z,100468.73
2019-04-23T02:47:32.534Z,100466.11
2019-04-23T02:52:43.100Z,100465.95
2019-04-23T02:57:44.059Z,100457.42
2019-04-23T03:08:10.208Z,100454.87
2019-04-23T03:10:34.294Z,100452.20
2019-04-23T03:13:16.196Z,100452.20
2019-04-23T03:16:00.887Z,100450.39
2019-04-23T03:20:59.517Z,100453.32
2019-04-23T03:26:04.309Z,100456.69
2019-04-23T03:28:47.152Z,100452.47
2019-04-23T03:36:17.068Z,100442.05
2019-04-23T03:38:45.323Z,100442.05
2019-04-23T03:41:15.737Z,100434.59
2019-04-23T03:43:44.821Z,100433.89
2019-04-23T03:46:34.134Z,100433.59
2019-04-23T03:48:57.413Z,100433.59
2019-04-23T03:51:31.669Z,100430.39
2019-04-23T03:54:11.744Z,100430.42
2019-04-23T03:59:18.603Z,100430.93
2019-04-23T04:01:38.937Z,100435.41
2019-04-23T04:06:49.194Z,100427.64
2019-04-23T04:09:28.705Z,100428.46
2019-04-23T04:11:45.626Z,100428.46
2019-04-23T04:14:32.212Z,100427.30
2019-04-23T04:17:01.341Z,100427.30
2019-04-23T04:27:29.147Z,100430.86
2019-04-23T04:29:47.098Z,100434.56
2019-04-23T04:32:11.942Z,100431.36
2019-04-23T04:42:25.392Z,100435.64
2019-04-23T04:47:42.282Z,100433.41
2019-04-23T04:50:22.774Z,100430.54
2019-04-23T04:55:23.585Z,100430.70
2019-04-23T05:03:19.242Z,100434.80
2019-04-23T05:05:58.302Z,100435.48
2019-04-23T05:13:21.769Z,100436.85
2019-04-23T05:18:23.535Z,100440.78
2019-04-23T05:20:52.949Z,100435.75
2019-04-23T05:23:36.989Z,100437.66
2019-04-23T05:25:51.492Z,100437.03
2019-04-23T05:28:52.015Z,100429.47
2019-04-23T05:31:00.094Z,100432.70
2019-04-23T05:33:33.821Z,100432.70
2019-04-23T05:38:52.692Z,100430.75
2019-04-23T05:41:18.060Z,100429.59
2019-04-23T05:43:44.905Z,100429.59
2019-04-23T05:48:55.353Z,100427.41
2019-04-23T05:51:27.963Z,100427.77
2019-04-23T05:54:03.585Z,100423.73
2019-04-23T05:56:32.333Z,100435.09
2019-04-23T05:59:06.663Z,100420.03
2019-04-23T06:09:19.199Z,100421.77
2019-04-23T06:11:56.985Z,100425.66
2019-04-23T06:14:25.026Z,100425.66
2019-04-23T06:17:09.702Z,100420.09
2019-04-23T06:19:28.778Z,100420.09
2019-04-23T06:24:44.353Z,100413.48
2019-04-23T06:27:15.153Z,100413.61
2019-04-23T06:29:43.211Z,100413.61
2019-04-23T06:32:29.442Z,100408.65
2019-04-23T06:34:53.130Z,100408.97
2019-04-23T06:37:39.790Z,100407.05
2019-04-23T06:39:59.761Z,100410.41
2019-04-23T06:42:30.757Z,100409.47
2019-04-23T06:45:01.261Z,100395.64
2019-04-23T06:47:35.355Z,100395.64
2019-04-23T06:50:06.627Z,100404.88
2019-04-23T06:52:39.789Z,100404.88
2019-04-23T06:55:20.469Z,100398.55
2019-04-23T06:58:00.009Z,100399.50
2019-04-23T07:00:27.437Z,100394.81
2019-04-23T07:02:59.782Z,100390.63
2019-04-23T07:05:37.690Z,100390.63
2019-04-23T07:08:02.865Z,100389.36
2019-04-23T07:10:40.301Z,100388.32
2019-04-23T07:13:13.976Z,100388.32
2019-04-23T07:15:58.726Z,100389.95
2019-04-23T07:18:16.204Z,100389.95
2019-04-23T07:20:50.518Z,100388.00
2019-04-23T07:23:30.038Z,100391.20
2019-04-23T07:26:07.792Z,100376.98
2019-04-23T07:28:39.012Z,100383.19
2019-04-23T07:31:14.274Z,100380.34
2019-04-23T07:33:47.487Z,100380.34
2019-04-23T07:36:17.225Z,100372.02
2019-04-23T07:38:54.693Z,100372.09
2019-04-23T07:41:23.767Z,100363.16
2019-04-23T07:44:00.894Z,100363.16
2019-04-23T07:46:33.878Z,100364.57
2019-04-23T07:49:01.224Z,100364.36
2019-04-23T07:51:37.383Z,100356.23
2019-04-23T07:54:11.354Z,100344.78
2019-04-23T07:56:42.190Z,100344.78
2019-04-23T07:59:19.182Z,100339.33
2019-04-23T08:01:49.107Z,100333.13
2019-04-23T08:04:16.897Z,100337.50
2019-04-23T08:06:53.053Z,100337.50
2019-04-23T08:09:24.098Z,100333.03
2019-04-23T08:11:56.344Z,100331.19
2019-04-23T08:14:34.279Z,100331.19
2019-04-23T08:17:05.616Z,100337.59
2019-04-23T08:22:21.758Z,100346.55
2019-04-23T08:24:50.568Z,100344.52
2019-04-23T08:27:18.607Z,100353.92
2019-04-23T08:29:55.395Z,100357.52
2019-04-23T08:32:29.553Z,100357.52
2019-04-23T08:34:58.676Z,100345.23
2019-04-23T08:37:47.917Z,100354.89
2019-04-23T08:40:02.608Z,100351.25
2019-04-23T08:45:15.608Z,100341.21
2019-04-23T08:47:44.290Z,100329.08
2019-04-23T08:50:21.667Z,100329.08
2019-04-23T08:52:52.446Z,100322.73
2019-04-23T08:57:47.426Z,100318.46
2019-04-23T09:00:39.374Z,100321.17
2019-04-23T09:03:04.656Z,100312.34
2019-04-23T09:05:46.742Z,100312.86
2019-04-23T09:08:22.897Z,100314.06
2019-04-23T09:10:49.445Z,100307.84
2019-04-23T09:18:31.167Z,100298.13
2019-04-23T09:20:55.141Z,100284.50
2019-04-23T09:26:03.898Z,100285.31
2019-04-23T09:36:26.029Z,100291.94
2019-04-23T09:38:54.117Z,100290.09
2019-04-23T09:44:10.649Z,100285.34
2019-04-23T09:46:29.574Z,100281.09
2019-04-23T09:49:18.653Z,100259.77
2019-04-23T09:51:47.204Z,100259.98
2019-04-23T09:59:25.338Z,100243.85
2019-04-23T10:01:44.968Z,100238.20
2019-04-23T10:04:12.538Z,100240.31
2019-04-23T10:06:36.234Z,100247.80
2019-04-23T10:09:10.116Z,100223.27
2019-04-23T10:11:40.988Z,100223.27
2019-04-23T10:14:12.490Z,100210.23
2019-04-23T10:16:45.064Z,100210.23
2019-04-23T10:19:17.171Z,100211.81
2019-04-23T10:21:49.246Z,100217.22
2019-04-23T10:24:21.087Z,100207.88
2019-04-23T10:26:52.585Z,100199.91
2019-04-23T10:29:23.938Z,100209.19
2019-04-23T10:31:55.733Z,100188.35
2019-04-23T10:34:27.453Z,100187.91
2019-04-23T10:36:59.626Z,100187.91
2019-04-23T10:39:35.592Z,100195.67
2019-04-23T10:42:05.775Z,100187.95
2019-04-23T10:44:38.093Z,100178.02
2019-04-23T10:47:43.565Z,100180.09
2019-04-23T10:50:34.377Z,100184.02
2019-04-23T10:52:57.032Z,100166.66
2019-04-23T10:55:22.342Z,100163.59
2019-04-23T10:57:45.981Z,100167.66
2019-04-23T11:00:26.799Z,100152.13
2019-04-23T11:02:59.130Z,100142.27
2019-04-23T11:05:42.995Z,100142.27
2019-04-23T11:08:02.355Z,100149.97
2019-04-23T11:10:32.929Z,100149.97
2019-04-23T11:13:21.359Z,100146.61
2019-04-23T11:15:58.393Z,100148.56
2019-04-23T11:18:08.890Z,100134.31
2019-04-23T11:21:00.927Z,100138.70
2019-04-23T11:23:27.908Z,100130.61
2019-04-23T11:25:57.743Z,100121.25
2019-04-23T11:28:33.106Z,100121.11
2019-04-23T11:41:26.385Z,100113.23
2019-04-23T11:44:14.284Z,100107.88
2019-04-23T11:46:39.750Z,100104.61
2019-04-23T11:51:54.715Z,100104.41
2019-04-23T11:57:07.878Z,100103.20
2019-04-23T11:59:16.289Z,100103.20
2019-04-23T12:01:52.896Z,100113.69
2019-04-23T12:04:26.305Z,100104.27
2019-04-23T12:06:52.758Z,100105.80
2019-04-23T12:09:34.822Z,100091.81
2019-04-23T12:14:37.437Z,100087.59
2019-04-23T12:17:17.244Z,100085.86
2019-04-23T12:22:18.043Z,100084.20
2019-04-23T12:25:02.511Z,100084.20
2019-04-23T12:32:43.277Z,100067.19
2019-04-23T12:35:09.039Z,100065.78
2019-04-23T12:37:36.362Z,100065.78
2019-04-23T12:40:11.273Z,100053.55
2019-04-23T12:47:49.966Z,100061.76
2019-04-23T12:55:27.765Z,100042.03
2019-04-23T12:57:57.396Z,100025.97
2019-04-23T13:00:37.078Z,100025.97
2019-04-23T13:02:57.194Z,100031.38
2019-04-23T13:05:35.927Z,100032.89
2019-04-23T13:08:15.499Z,100042.41
2019-04-23T13:10:44.068Z,100024.48
2019-04-23T13:15:48.824Z,100017.13
2019-04-23T13:18:27.323Z,100014.50
2019-04-23T13:20:53.926Z,100010.80
2019-04-23T13:23:30.763Z,100009.25
2019-04-23T13:26:01.283Z,100007.61
2019-04-23T13:28:35.335Z,100013.81
2019-04-23T13:31:13.007Z,100000.48
2019-04-23T13:33:50.985Z,100002.81
2019-04-23T13:36:17.510Z,99996.98
2019-04-23T13:38:52.635Z,100002.31
2019-04-23T13:44:06.073Z,99989.74
2019-04-23T13:46:22.836Z,99993.23
2019-04-23T13:48:58.260Z,99993.23
2019-04-23T13:51:37.056Z,99990.17
2019-04-23T13:54:13.854Z,99991.14
2019-04-23T13:56:53.864Z,99983.16
2019-04-23T13:59:16.335Z,99983.16
2019-04-23T14:01:43.005Z,99984.39
2019-04-23T14:06:55.631Z,99985.31
2019-04-23T14:09:36.742Z,99978.75
2019-04-23T14:11:58.635Z,99964.24
2019-04-23T14:14:42.145Z,99978.58
2019-04-23T14:17:16.641Z,99963.58
2019-04-23T14:19:34.305Z,99973.72
2019-04-23T14:22:33.781Z,99956.67
2019-04-23T14:24:53.220Z,99956.67
2019-04-23T14:27:24.533Z,99968.88
2019-04-23T14:29:58.522Z,99953.84
2019-04-23T14:32:29.354Z,99949.56
2019-04-23T14:35:18.084Z,99952.34
2019-04-23T14:37:29.488Z,99945.38
2019-04-23T14:40:07.449Z,99953.63
2019-04-23T14:43:01.787Z,99951.67
2019-04-23T14:45:21.184Z,99947.23
2019-04-23T14:47:54.691Z,99939.63
2019-04-23T14:52:57.204Z,99934.36
2019-04-23T15:00:33.259Z,99935.92
2019-04-23T15:03:17.983Z,99945.52
2019-04-23T15:05:45.089Z,99928.60
2019-04-23T15:08:20.627Z,99918.49
2019-04-23T15:10:57.308Z,99927.30
2019-04-23T15:13:22.769Z,99923.51
2019-04-23T15:16:06.279Z,99923.51
2019-04-23T15:18:37.766Z,99906.73
2019-04-23T15:21:18.411Z,99906.73
2019-04-23T15:23:41.242Z,99906.84
2019-04-23T15:26:47.865Z,99895.61
2019-04-23T15:28:13.267Z,99902.61
2019-04-23T15:33:56.458Z,99900.94
2019-04-23T15:44:07.383Z,99886.22
2019-04-23T15:54:15.071Z,99888.51
2019-04-23T15:59:21.007Z,99887.89
2019-04-23T16:01:42.523Z,99870.52
2019-04-23T16:03:53.734Z,99882.50
2019-04-23T16:06:30.218Z,99882.50
2019-04-23T16:09:16.251Z,99881.56
2019-04-23T16:11:51.899Z,99874.77
2019-04-23T16:14:31.177Z,99874.77
2019-04-23T16:17:10.063Z,99881.23
2019-04-23T16:19:45.902Z,99880.52
2019-04-23T16:22:10.757Z,99878.84
2019-04-23T16:24:51.901Z,99885.18
2019-04-23T16:30:06.327Z,99882.86
2019-04-23T16:35:06.218Z,99881.78
2019-04-23T16:37:57.420Z,99878.89
2019-04-23T16:40:16.431Z,99876.32
2019-04-23T16:42:40.069Z,99873.63
2019-04-23T16:45:16.449Z,99877.22
2019-04-23T16:47:52.306Z,99873.91
2019-04-23T16:50:18.165Z,99872.97
2019-04-23T16:52:51.828Z,99878.66
2019-04-23T16:55:24.084Z,99878.23
2019-04-23T16:58:08.359Z,99878.61
2019-04-23T17:00:31.810Z,99866.59
2019-04-23T17:03:13.845Z,99866.59
2019-04-23T17:05:44.320Z,99867.14
2019-04-23T17:10:46.754Z,99876.44
2019-04-23T17:13:25.592Z,99870.34
2019-04-23T17:18:26.239Z,99872.55
2019-04-23T17:20:59.994Z,99869.66
2019-04-23T17:23:39.261Z,99869.66
2019-04-23T17:26:13.157Z,99869.66
2019-04-23T17:28:39.507Z,99877.98
2019-04-23T17:31:28.006Z,99877.98
2019-04-23T17:36:24.371Z,99874.01
2019-04-23T17:38:56.983Z,99875.00
2019-04-23T17:44:09.982Z,99874.59
2019-04-23T17:46:29.562Z,99876.69
2019-04-23T17:49:08.423Z,99878.45
2019-04-23T17:51:42.212Z,99883.80
2019-04-23T17:54:12.100Z,99883.34
2019-04-23T18:02:12.144Z,99884.23
2019-04-23T18:07:00.454Z,99882.16
2019-04-23T18:09:34.324Z,99882.16
2019-04-23T18:12:01.071Z,99881.77
2019-04-23T18:14:28.274Z,99884.58
2019-04-23T18:17:13.058Z,99881.22
2019-04-23T18:19:32.744Z,99879.09
2019-04-23T18:22:18.286Z,99881.02
2019-04-23T18:24:41.439Z,99886.41
2019-04-23T18:27:19.165Z,99886.10
2019-04-23T18:32:23.359Z,99880.18
2019-04-23T18:35:15.479Z,99886.73
2019-04-23T18:37:30.014Z,99889.34
2019-04-23T18:40:00.364Z,99892.31
2019-04-23T18:42:41.706Z,99889.81
2019-04-23T18:45:20.531Z,99882.31
2019-04-23T18:47:47.192Z,99884.05
2019-04-23T18:50:23.015Z,99884.05
2019-04-23T18:55:37.976Z,99885.16
2019-04-23T18:57:57.310Z,99887.48
2019-04-23T19:03:01.169Z,99893.79
2019-04-23T19:05:45.632Z,99892.98
2019-04-23T19:08:23.443Z,99890.36
2019-04-23T19:10:48.687Z,99885.95
2019-04-23T19:13:21.872Z,99891.10
2019-04-23T19:15:42.152Z,99891.63
2019-04-23T19:18:26.667Z,99901.31
2019-04-23T19:21:00.907Z,99897.00
2019-04-23T19:26:07.878Z,99898.92
2019-04-23T19:31:09.682Z,99894.19
2019-04-23T19:33:49.210Z,99894.19
2019-04-23T19:38:49.699Z,99887.88
2019-04-23T19:41:23.819Z,99887.88
2019-04-23T19:43:58.095Z,99886.73
2019-04-23T19:49:05.655Z,99890.71
2019-04-23T19:51:33.786Z,99893.66
2019-04-23T19:56:47.174Z,99892.39
2019-04-23T19:59:13.413Z,99889.25
2019-04-23T20:01:53.365Z,99889.56
2019-04-23T20:04:15.059Z,99889.36
2019-04-23T20:14:41.597Z,99885.57
2019-04-23T20:17:23.358Z,99885.35
2019-04-23T20:19:44.060Z,99880.19
2019-04-23T20:22:17.108Z,99882.70
2019-04-23T20:27:18.517Z,99877.98
2019-04-23T20:30:15.650Z,99877.14
2019-04-23T20:34:59.141Z,99872.84
2019-04-23T20:38:05.133Z,99872.84
2019-04-23T20:40:08.652Z,99881.42
2019-04-23T20:42:37.138Z,99872.01
2019-04-23T20:47:48.460Z,99878.09
2019-04-23T20:50:10.151Z,99878.09
2019-04-23T20:52:46.650Z,99870.94
2019-04-23T20:55:31.108Z,99872.62
2019-04-23T20:57:50.254Z,99875.00
2019-04-23T21:00:27.480Z,99872.39
2019-04-23T21:05:29.923Z,99869.87
2019-04-23T21:08:07.929Z,99869.61
2019-04-23T21:15:52.546Z,99866.58
2019-04-23T21:18:33.041Z,99860.80
2019-04-23T21:23:36.065Z,99857.15
2019-04-23T21:25:57.210Z,99857.15
2019-04-23T21:31:18.954Z,99858.08
2019-04-23T21:33:51.533Z,99854.73
2019-04-23T21:41:35.237Z,99848.15
2019-04-23T21:44:54.267Z,99847.60
2019-04-23T21:46:38.233Z,99846.05
2019-04-23T21:53:58.491Z,99846.56
2019-04-23T21:59:07.277Z,99841.47
2019-04-23T22:01:55.876Z,99841.47
2019-04-23T22:04:25.359Z,99837.98
2019-04-23T22:12:03.594Z,99832.59
2019-04-23T22:17:09.625Z,99834.48
2019-04-23T22:19:45.060Z,99834.48
2019-04-23T22:22:10.753Z,99828.30
2019-04-23T22:24:48.299Z,99834.23
2019-04-23T22:27:20.184Z,99831.19
2019-04-23T22:29:49.242Z,99826.83
2019-04-23T22:32:34.309Z,99818.02
2019-04-23T22:35:00.356Z,99828.59
2019-04-23T22:37:36.501Z,99824.63
2019-04-23T22:40:04.714Z,99824.63
2019-04-23T22:45:16.249Z,99826.47
2019-04-23T22:50:19.841Z,99819.74
2019-04-23T22:52:54.048Z,99819.74
2019-04-23T22:55:23.493Z,99822.33
2019-04-23T23:00:29.991Z,99828.45
2019-04-23T23:05:53.805Z,99815.49
2019-04-23T23:13:24.712Z,99814.80
2019-04-23T23:15:54.614Z,99807.58
2019-04-23T23:18:23.209Z,99808.39
2019-04-23T23:20:59.566Z,99808.39
2019-04-23T23:23:30.575Z,99811.95
2019-04-23T23:28:41.208Z,99809.28
2019-04-23T23:33:50.808Z,99808.39
2019-04-23T23:38:59.481Z,99809.28
2019-04-23T23:41:40.478Z,99816.88
2019-04-23T23:44:23.953Z,99809.94
2019-04-23T23:46:37.377Z,99809.94
2019-04-23T23:49:08.278Z,99809.62
2019-04-23T23:51:39.889Z,99807.67
2019-04-23T23:56:52.305Z,99806.95
